createdAt,value
2017-12-23T00:52:54.255Z,1024.91
2017-12-23T00:53:54.232Z,1024.93
2017-12-23T00:54:54.492Z,1024.93
2017-12-23T00:55:54.222Z,1024.91
2017-12-23T00:56:54.442Z,1024.93
2017-12-23T00:57:54.249Z,1024.95
2017-12-23T00:58:54.433Z,1024.9
2017-12-23T00:59:54.508Z,1024.85
2017-12-23T01:00:54.228Z,1024.86
2017-12-23T01:01:54.216Z,1024.82
2017-12-23T01:02:54.038Z,1024.79
2017-12-23T01:03:54.038Z,1024.83
2017-12-23T01:04:54.056Z,1024.83
2017-12-23T01:05:54.272Z,1024.86
2017-12-23T01:06:54.512Z,1024.87
2017-12-23T01:07:54.052Z,1024.84
2017-12-23T01:08:54.482Z,1024.85
2017-12-23T01:09:54.292Z,1024.85
2017-12-23T01:10:54.421Z,1024.84
2017-12-23T01:11:54.241Z,1024.83
2017-12-23T01:12:54.477Z,1024.81
2017-12-23T01:13:54.412Z,1024.79
2017-12-23T01:14:54.048Z,1024.8
2017-12-23T01:15:54.293Z,1024.81
2017-12-23T01:16:54.466Z,1024.81
2017-12-23T01:17:54.302Z,1024.79
2017-12-23T01:18:54.434Z,1024.78
2017-12-23T01:19:54.274Z,1024.79
2017-12-23T01:20:54.276Z,1024.77
2017-12-23T01:21:54.256Z,1024.77
2017-12-23T01:22:54.324Z,1024.72
2017-12-23T01:23:54.455Z,1024.71
2017-12-23T01:24:54.051Z,1024.69
2017-12-23T01:25:54.491Z,1024.68
2017-12-23T01:26:54.284Z,1024.67
2017-12-23T01:27:54.439Z,1024.66
2017-12-23T01:28:54.291Z,1024.71
2017-12-23T01:29:54.068Z,1024.69
2017-12-23T01:30:54.252Z,1024.67
2017-12-23T01:31:54.265Z,1024.66
2017-12-23T01:32:54.090Z,1024.65
2017-12-23T01:33:54.074Z,1024.66
2017-12-23T01:34:54.250Z,1024.64
2017-12-23T01:35:54.299Z,1024.65
2017-12-23T01:36:54.123Z,1024.65
2017-12-23T01:37:54.303Z,1024.62
2017-12-23T01:38:54.456Z,1024.66
2017-12-23T01:39:54.276Z,1024.67
2017-12-23T01:40:54.067Z,1024.71
2017-12-23T01:41:54.060Z,1024.68
2017-12-23T01:42:54.260Z,1024.73
2017-12-23T01:43:54.067Z,1024.75
2017-12-23T01:44:54.069Z,1024.74
2017-12-23T01:45:54.286Z,1024.75
2017-12-23T01:46:54.270Z,1024.73
2017-12-23T01:47:54.076Z,1024.73
2017-12-23T01:48:54.083Z,1024.69
2017-12-23T01:49:54.454Z,1024.68
2017-12-23T01:50:54.248Z,1024.72
2017-12-23T01:51:54.595Z,1024.68
2017-12-23T01:52:54.475Z,1024.69
2017-12-23T01:53:54.187Z,1024.68
2017-12-23T01:54:54.462Z,1024.71
2017-12-23T01:55:54.612Z,1024.71
2017-12-23T01:56:54.301Z,1024.79
2017-12-23T01:57:54.493Z,1024.77
2017-12-23T01:58:54.746Z,1024.79
2017-12-23T01:59:54.255Z,1024.82
2017-12-23T02:00:54.075Z,1024.8
2017-12-23T02:01:54.287Z,1024.77
2017-12-23T02:02:54.297Z,1024.74
2017-12-23T02:03:54.320Z,1024.69
2017-12-23T02:04:54.454Z,1024.69
2017-12-23T02:05:54.098Z,1024.68
2017-12-23T02:06:54.483Z,1024.69
2017-12-23T02:07:54.249Z,1024.72
2017-12-23T02:08:54.319Z,1024.66
2017-12-23T02:09:54.498Z,1024.66
2017-12-23T02:10:54.311Z,1024.66
2017-12-23T02:11:54.254Z,1024.61
2017-12-23T02:12:54.272Z,1024.65
2017-12-23T02:13:54.251Z,1024.6
2017-12-23T02:14:54.065Z,1024.61
2017-12-23T02:15:54.314Z,1024.58
2017-12-23T02:16:54.085Z,1024.65
2017-12-23T02:17:54.481Z,1024.65
2017-12-23T02:18:54.098Z,1024.63
2017-12-23T02:19:54.099Z,1024.64
2017-12-23T02:20:54.299Z,1024.59
2017-12-23T02:21:54.316Z,1024.62
2017-12-23T02:22:54.118Z,1024.59
2017-12-23T02:23:54.108Z,1024.54
2017-12-23T02:24:54.315Z,1024.59
2017-12-23T02:25:54.323Z,1024.56
2017-12-23T02:26:54.506Z,1024.51
2017-12-23T02:27:54.283Z,1024.49
2017-12-23T02:28:54.347Z,1024.46
2017-12-23T02:29:54.086Z,1024.5
2017-12-23T02:30:54.508Z,1024.49
2017-12-23T02:31:54.332Z,1024.52
2017-12-23T02:32:54.247Z,1024.51
2017-12-23T02:33:54.560Z,1024.47
2017-12-23T02:34:54.555Z,1024.49
2017-12-23T02:35:54.324Z,1024.56
2017-12-23T02:36:54.530Z,1024.47
2017-12-23T02:37:54.526Z,1024.5
2017-12-23T02:38:54.544Z,1024.49
2017-12-23T02:39:54.306Z,1024.45
2017-12-23T02:40:54.286Z,1024.45
2017-12-23T02:41:54.335Z,1024.41
2017-12-23T02:42:54.327Z,1024.39
2017-12-23T02:43:54.330Z,1024.38
2017-12-23T02:44:54.298Z,1024.34
2017-12-23T02:45:54.290Z,1024.33
2017-12-23T02:46:54.497Z,1024.34
2017-12-23T02:47:54.514Z,1024.32
2017-12-23T02:48:54.511Z,1024.31
2017-12-23T02:49:54.522Z,1024.28
2017-12-23T02:50:54.309Z,1024.31
2017-12-23T02:51:54.526Z,1024.34
2017-12-23T02:52:54.477Z,1024.38
2017-12-23T02:53:54.341Z,1024.37
2017-12-23T02:54:54.148Z,1024.42
2017-12-23T02:55:54.349Z,1024.47
2017-12-23T02:56:54.303Z,1024.47
2017-12-23T02:57:54.539Z,1024.47
2017-12-23T02:58:54.291Z,1024.47
2017-12-23T02:59:54.119Z,1024.46
2017-12-23T03:00:54.290Z,1024.48
2017-12-23T03:01:54.118Z,1024.49
2017-12-23T03:02:54.301Z,1024.46
2017-12-23T03:03:54.271Z,1024.5
2017-12-23T03:04:54.117Z,1024.45
2017-12-23T03:05:54.109Z,1024.44
2017-12-23T03:06:54.315Z,1024.42
2017-12-23T03:07:54.292Z,1024.43
2017-12-23T03:08:54.316Z,1024.42
2017-12-23T03:09:54.307Z,1024.39
2017-12-23T03:10:54.529Z,1024.38
2017-12-23T03:11:54.136Z,1024.39
2017-12-23T03:12:54.316Z,1024.35
2017-12-23T03:13:54.538Z,1024.38
2017-12-23T03:14:54.178Z,1024.36
2017-12-23T03:15:54.308Z,1024.38
2017-12-23T03:16:54.334Z,1024.38
2017-12-23T03:17:54.534Z,1024.39
2017-12-23T03:18:54.172Z,1024.4
2017-12-23T03:19:54.346Z,1024.45
2017-12-23T03:20:54.546Z,1024.42
2017-12-23T03:21:54.294Z,1024.4
2017-12-23T03:22:54.549Z,1024.39
2017-12-23T03:23:54.525Z,1024.42
2017-12-23T03:24:54.395Z,1024.44
2017-12-23T03:25:54.515Z,1024.41
2017-12-23T03:26:54.433Z,1024.46
2017-12-23T03:27:54.348Z,1024.46
2017-12-23T03:28:54.477Z,1024.45
2017-12-23T03:29:54.361Z,1024.46
2017-12-23T03:30:54.317Z,1024.41
2017-12-23T03:31:54.333Z,1024.45
2017-12-23T03:32:54.369Z,1024.44
2017-12-23T03:33:54.530Z,1024.39
2017-12-23T03:34:54.181Z,1024.39
2017-12-23T03:35:54.307Z,1024.37
2017-12-23T03:36:54.335Z,1024.36
2017-12-23T03:37:54.134Z,1024.36
2017-12-23T03:38:54.119Z,1024.36
2017-12-23T03:39:54.142Z,1024.38
2017-12-23T03:40:54.295Z,1024.38
2017-12-23T03:41:54.342Z,1024.38
2017-12-23T03:42:54.302Z,1024.33
2017-12-23T03:43:54.333Z,1024.37
2017-12-23T03:44:54.125Z,1024.35
2017-12-23T03:45:54.302Z,1024.34
2017-12-23T03:46:54.150Z,1024.32
2017-12-23T03:47:54.329Z,1024.36
2017-12-23T03:48:54.293Z,1024.34
2017-12-23T03:49:54.342Z,1024.29
2017-12-23T03:50:54.125Z,1024.33
2017-12-23T03:51:54.536Z,1024.29
2017-12-23T03:52:54.334Z,1024.28
2017-12-23T03:53:54.147Z,1024.32
2017-12-23T03:54:54.126Z,1024.23
2017-12-23T03:55:54.143Z,1024.24
2017-12-23T03:56:54.152Z,1024.25
2017-12-23T03:57:54.595Z,1024.27
2017-12-23T03:58:54.300Z,1024.25
2017-12-23T03:59:54.352Z,1024.26
2017-12-23T04:00:54.488Z,1024.24
2017-12-23T04:01:54.469Z,1024.23
2017-12-23T04:02:54.322Z,1024.24
2017-12-23T04:03:54.145Z,1024.25
2017-12-23T04:04:54.327Z,1024.22
2017-12-23T04:05:54.365Z,1024.21
2017-12-23T04:06:54.304Z,1024.21
2017-12-23T04:07:54.533Z,1024.22
2017-12-23T04:08:54.335Z,1024.21
2017-12-23T04:09:54.491Z,1024.21
2017-12-23T04:10:54.367Z,1024.21
2017-12-23T04:11:54.324Z,1024.19
2017-12-23T04:12:54.160Z,1024.19
2017-12-23T04:13:54.323Z,1024.14
2017-12-23T04:14:54.115Z,1024.11
2017-12-23T04:15:54.151Z,1024.1
2017-12-23T04:16:54.294Z,1024.07
2017-12-23T04:17:54.158Z,1024.1
2017-12-23T04:18:54.156Z,1024.09
2017-12-23T04:19:54.359Z,1024.05
2017-12-23T04:20:54.312Z,1024.01
2017-12-23T04:21:54.574Z,1024
2017-12-23T04:22:54.151Z,1023.95
2017-12-23T04:23:54.518Z,1023.97
2017-12-23T04:24:54.089Z,1024.03
2017-12-23T04:25:54.356Z,1024.03
2017-12-23T04:26:54.338Z,1023.96
2017-12-23T04:27:54.297Z,1023.96
2017-12-23T04:28:54.517Z,1023.96
2017-12-23T04:29:54.115Z,1024.01
2017-12-23T04:30:54.138Z,1024.01
2017-12-23T04:31:54.349Z,1024.01
2017-12-23T04:32:54.371Z,1023.99
2017-12-23T04:33:54.315Z,1023.97
2017-12-23T04:34:54.536Z,1023.97
2017-12-23T04:35:54.525Z,1023.98
2017-12-23T04:36:54.571Z,1023.95
2017-12-23T04:37:54.343Z,1023.96
2017-12-23T04:38:54.542Z,1023.96
2017-12-23T04:39:54.347Z,1023.94
2017-12-23T04:40:54.156Z,1023.94
2017-12-23T04:41:54.318Z,1023.94
2017-12-23T04:42:54.129Z,1023.92
2017-12-23T04:43:54.170Z,1023.97
2017-12-23T04:44:54.550Z,1023.9
2017-12-23T04:45:54.515Z,1023.91
2017-12-23T04:46:54.320Z,1023.92
2017-12-23T04:47:54.328Z,1023.94
2017-12-23T04:48:54.136Z,1023.96
2017-12-23T04:49:54.328Z,1023.96
2017-12-23T04:50:54.133Z,1023.96
2017-12-23T04:51:54.538Z,1023.98
2017-12-23T04:52:54.139Z,1023.95
2017-12-23T04:53:54.368Z,1023.97
2017-12-23T04:54:54.525Z,1023.99
2017-12-23T04:55:54.085Z,1024.03
2017-12-23T04:56:54.335Z,1024.03
2017-12-23T04:57:54.774Z,1024.04
2017-12-23T04:58:54.528Z,1024.06
2017-12-23T04:59:54.405Z,1024.12
2017-12-23T05:00:54.523Z,1024.15
2017-12-23T05:01:54.114Z,1024.16
2017-12-23T05:02:54.960Z,1024.11
2017-12-23T05:03:54.354Z,1024.13
2017-12-23T05:05:54.140Z,1024.19
2017-12-23T05:06:54.514Z,1024.23
2017-12-23T05:07:54.393Z,1024.18
2017-12-23T05:08:54.366Z,1024.18
2017-12-23T05:09:54.327Z,1024.19
2017-12-23T05:10:54.328Z,1024.21
2017-12-23T05:11:54.332Z,1024.16
2017-12-23T05:12:54.533Z,1024.19
2017-12-23T05:13:54.159Z,1024.14
2017-12-23T05:14:55.157Z,1024.16
2017-12-23T05:15:54.181Z,1024.15
2017-12-23T05:17:54.556Z,1024.15
2017-12-23T05:18:54.370Z,1024.18
2017-12-23T05:19:54.387Z,1024.16
2017-12-23T05:20:54.200Z,1024.17
2017-12-23T05:21:54.568Z,1024.17
2017-12-23T05:22:54.359Z,1024.13
2017-12-23T05:23:54.123Z,1024.11
2017-12-23T05:24:54.534Z,1024.17
2017-12-23T05:25:54.331Z,1024.13
2017-12-23T05:26:54.388Z,1024.12
2017-12-23T05:27:54.631Z,1024.17
2017-12-23T05:28:54.143Z,1024.19
2017-12-23T05:29:54.338Z,1024.19
2017-12-23T05:30:54.410Z,1024.21
2017-12-23T05:31:54.530Z,1024.21
2017-12-23T05:32:54.377Z,1024.17
2017-12-23T05:33:54.366Z,1024.22
2017-12-23T05:34:54.336Z,1024.16
2017-12-23T05:35:54.359Z,1024.14
2017-12-23T05:36:54.321Z,1024.13
2017-12-23T05:37:54.316Z,1024.09
2017-12-23T05:38:54.345Z,1024.13
2017-12-23T05:39:54.527Z,1024.13
2017-12-23T05:40:54.356Z,1024.1
2017-12-23T05:41:54.148Z,1024.09
2017-12-23T05:42:54.154Z,1024.08
2017-12-23T05:43:54.378Z,1024.05
2017-12-23T05:44:54.400Z,1024.06
2017-12-23T05:45:54.334Z,1024.07
2017-12-23T05:46:54.171Z,1024.1
2017-12-23T05:47:54.332Z,1024.09
2017-12-23T05:48:54.395Z,1024.12
2017-12-23T05:49:54.335Z,1024.14
2017-12-23T05:50:54.128Z,1024.1
2017-12-23T05:51:54.339Z,1024.11
2017-12-23T05:52:54.560Z,1024.07
2017-12-23T05:53:54.369Z,1024.05
2017-12-23T05:54:54.333Z,1024.12
2017-12-23T05:55:54.571Z,1024.11
2017-12-23T05:56:54.545Z,1024.1
2017-12-23T05:57:54.546Z,1024.1
2017-12-23T05:58:54.150Z,1024.09
2017-12-23T05:59:54.370Z,1024.07
2017-12-23T06:00:54.196Z,1024.09
2017-12-23T06:01:54.460Z,1024.07
2017-12-23T06:02:54.171Z,1024.05
2017-12-23T06:03:54.117Z,1024.05
2017-12-23T06:04:54.385Z,1024.05
2017-12-23T06:05:54.373Z,1024.04
2017-12-23T06:06:54.560Z,1024.07
2017-12-23T06:07:54.331Z,1024.04
2017-12-23T06:08:54.388Z,1024.01
2017-12-23T06:09:54.194Z,1024
2017-12-23T06:10:54.165Z,1023.99
2017-12-23T06:11:54.341Z,1023.96
2017-12-23T06:12:54.121Z,1023.88
2017-12-23T06:13:54.363Z,1023.86
2017-12-23T06:14:54.422Z,1023.85
2017-12-23T06:15:54.181Z,1023.81
2017-12-23T06:16:54.617Z,1023.72
2017-12-23T06:17:54.166Z,1023.7
2017-12-23T06:18:54.321Z,1023.64
2017-12-23T06:19:54.589Z,1023.62
2017-12-23T06:20:54.599Z,1023.63
2017-12-23T06:21:54.316Z,1023.63
2017-12-23T06:22:54.164Z,1023.62
2017-12-23T06:23:54.347Z,1023.59
2017-12-23T06:24:54.535Z,1023.6
2017-12-23T06:25:54.567Z,1023.58
2017-12-23T06:26:54.549Z,1023.55
2017-12-23T06:27:54.393Z,1023.55
2017-12-23T06:28:54.359Z,1023.56
2017-12-23T06:29:54.195Z,1023.5
2017-12-23T06:30:54.426Z,1023.54
2017-12-23T06:31:54.375Z,1023.48
2017-12-23T06:32:54.433Z,1023.5
2017-12-23T06:33:54.571Z,1023.51
2017-12-23T06:34:54.388Z,1023.48
2017-12-23T06:35:54.352Z,1023.49
2017-12-23T06:36:54.164Z,1023.51
2017-12-23T06:37:54.336Z,1023.47
2017-12-23T06:38:54.569Z,1023.46
2017-12-23T06:39:54.192Z,1023.44
2017-12-23T06:40:54.201Z,1023.46
2017-12-23T06:41:54.346Z,1023.38
2017-12-23T06:42:54.540Z,1023.38
2017-12-23T06:43:54.398Z,1023.4
2017-12-23T06:44:54.380Z,1023.39
2017-12-23T06:45:54.391Z,1023.46
2017-12-23T06:46:54.615Z,1023.46
2017-12-23T06:47:54.552Z,1023.49
2017-12-23T06:48:54.373Z,1023.49
2017-12-23T06:49:54.166Z,1023.54
2017-12-23T06:50:54.581Z,1023.51
2017-12-23T06:51:54.585Z,1023.51
2017-12-23T06:52:54.145Z,1023.56
2017-12-23T06:53:54.188Z,1023.49
2017-12-23T06:54:54.190Z,1023.54
2017-12-23T06:55:54.393Z,1023.5
2017-12-23T06:56:54.431Z,1023.53
2017-12-23T06:57:54.214Z,1023.52
2017-12-23T06:58:54.399Z,1023.52
2017-12-23T06:59:54.584Z,1023.55
2017-12-23T07:00:54.616Z,1023.62
2017-12-23T07:01:54.387Z,1023.64
2017-12-23T07:02:54.417Z,1023.63
2017-12-23T07:03:54.411Z,1023.64
2017-12-23T07:04:54.373Z,1023.61
2017-12-23T07:05:54.384Z,1023.69
2017-12-23T07:06:54.205Z,1023.65
2017-12-23T07:07:54.437Z,1023.66
2017-12-23T07:08:54.200Z,1023.64
2017-12-23T07:09:54.377Z,1023.62
2017-12-23T07:10:54.399Z,1023.6
2017-12-23T07:11:54.356Z,1023.6
2017-12-23T07:12:54.434Z,1023.59
2017-12-23T07:13:54.374Z,1023.59
2017-12-23T07:14:54.358Z,1023.56
2017-12-23T07:15:54.590Z,1023.55
2017-12-23T07:16:54.556Z,1023.59
2017-12-23T07:17:54.460Z,1023.65
2017-12-23T07:18:54.363Z,1023.68
2017-12-23T07:19:54.228Z,1023.67
2017-12-23T07:20:54.374Z,1023.68
2017-12-23T07:21:54.404Z,1023.71
2017-12-23T07:22:54.483Z,1023.69
2017-12-23T07:23:54.611Z,1023.71
2017-12-23T07:24:54.392Z,1023.71
2017-12-23T07:25:54.397Z,1023.71
2017-12-23T07:26:54.343Z,1023.75
2017-12-23T07:27:54.386Z,1023.8
2017-12-23T07:28:54.434Z,1023.8
2017-12-23T07:29:54.572Z,1023.82
2017-12-23T07:30:54.612Z,1023.87
2017-12-23T07:31:54.229Z,1023.84
2017-12-23T07:32:54.550Z,1023.92
2017-12-23T07:33:54.438Z,1023.96
2017-12-23T07:34:54.575Z,1023.94
2017-12-23T07:35:54.388Z,1023.92
2017-12-23T07:36:54.397Z,1023.92
2017-12-23T07:37:54.404Z,1023.93
2017-12-23T07:38:54.391Z,1023.93
2017-12-23T07:39:54.403Z,1023.92
2017-12-23T07:40:54.388Z,1023.92
2017-12-23T07:41:54.362Z,1023.87
2017-12-23T07:42:54.245Z,1023.94
2017-12-23T07:43:54.437Z,1023.93
2017-12-23T07:44:54.414Z,1023.93
2017-12-23T07:45:54.376Z,1023.97
2017-12-23T07:46:54.385Z,1023.94
2017-12-23T07:47:54.413Z,1023.99
2017-12-23T07:48:54.255Z,1023.95
2017-12-23T07:49:54.613Z,1023.96
2017-12-23T07:50:54.405Z,1023.99
2017-12-23T07:51:54.415Z,1024.01
2017-12-23T07:52:54.409Z,1024.02
2017-12-23T07:53:54.473Z,1024.04
2017-12-23T07:54:54.562Z,1024.03
2017-12-23T07:55:54.413Z,1024.05
2017-12-23T07:56:54.438Z,1024.03
2017-12-23T07:57:54.669Z,1024.07
2017-12-23T07:58:54.401Z,1024.06
2017-12-23T07:59:54.204Z,1024.04
2017-12-23T08:00:54.662Z,1024.05
2017-12-23T08:01:54.200Z,1024.06
2017-12-23T08:02:54.402Z,1024.1
2017-12-23T08:03:54.396Z,1024.06
2017-12-23T08:04:54.495Z,1024.06
2017-12-23T08:05:54.420Z,1024.04
2017-12-23T08:06:54.409Z,1024.04
2017-12-23T08:07:54.624Z,1024.07
2017-12-23T08:08:54.434Z,1024.09
2017-12-23T08:09:54.395Z,1024.09
2017-12-23T08:10:54.358Z,1024.11
2017-12-23T08:11:54.414Z,1024.08
2017-12-23T08:12:54.224Z,1024.08
2017-12-23T08:13:54.724Z,1024.09
2017-12-23T08:14:54.236Z,1024.11
2017-12-23T08:15:54.454Z,1024.08
2017-12-23T08:16:54.434Z,1024.12
2017-12-23T08:17:54.417Z,1024.13
2017-12-23T08:18:54.251Z,1024.12
2017-12-23T08:19:54.677Z,1024.12
2017-12-23T08:20:54.606Z,1024.14
2017-12-23T08:21:54.640Z,1024.15
2017-12-23T08:22:54.432Z,1024.16
2017-12-23T08:23:54.236Z,1024.16
2017-12-23T08:24:54.612Z,1024.19
2017-12-23T08:25:54.464Z,1024.23
2017-12-23T08:26:54.471Z,1024.2
2017-12-23T08:27:54.417Z,1024.21
2017-12-23T08:28:54.431Z,1024.21
2017-12-23T08:29:54.421Z,1024.22
2017-12-23T08:30:54.254Z,1024.22
2017-12-23T08:31:54.592Z,1024.24
2017-12-23T08:32:54.471Z,1024.24
2017-12-23T08:33:54.476Z,1024.24
2017-12-23T08:34:54.416Z,1024.18
2017-12-23T08:35:54.520Z,1024.21
2017-12-23T08:36:54.224Z,1024.22
2017-12-23T08:37:54.628Z,1024.24
2017-12-23T08:38:54.600Z,1024.22
2017-12-23T08:39:54.603Z,1024.23
2017-12-23T08:40:54.447Z,1024.25
2017-12-23T08:41:54.445Z,1024.23
2017-12-23T08:42:54.450Z,1024.26
2017-12-23T08:43:54.252Z,1024.29
2017-12-23T08:44:54.470Z,1024.27
2017-12-23T08:45:54.481Z,1024.25
2017-12-23T08:46:54.427Z,1024.27
2017-12-23T08:47:56.851Z,1024.31
2017-12-23T08:48:54.631Z,1024.26
2017-12-23T08:49:54.464Z,1024.27
2017-12-23T08:50:54.235Z,1024.2
2017-12-23T08:51:54.418Z,1024.25
2017-12-23T08:52:54.438Z,1024.28
2017-12-23T08:53:54.419Z,1024.23
2017-12-23T08:54:54.251Z,1024.23
2017-12-23T08:55:54.462Z,1024.25
2017-12-23T08:56:54.257Z,1024.21
2017-12-23T08:57:54.243Z,1024.22
2017-12-23T08:58:54.266Z,1024.28
2017-12-23T08:59:54.398Z,1024.3
2017-12-23T09:00:54.238Z,1024.28
2017-12-23T09:01:54.415Z,1024.28
2017-12-23T09:02:54.261Z,1024.19
2017-12-23T09:03:54.236Z,1024.22
2017-12-23T09:04:54.280Z,1024.24
2017-12-23T09:05:54.427Z,1024.26
2017-12-23T09:06:54.326Z,1024.22
2017-12-23T09:07:54.421Z,1024.25
2017-12-23T09:08:54.268Z,1024.25
2017-12-23T09:09:54.410Z,1024.24
2017-12-23T09:10:54.227Z,1024.28
2017-12-23T09:11:54.665Z,1024.27
2017-12-23T09:12:54.630Z,1024.33
2017-12-23T09:13:54.259Z,1024.26
2017-12-23T09:14:54.489Z,1024.31
2017-12-23T09:15:54.614Z,1024.29
2017-12-23T09:16:54.432Z,1024.3
2017-12-23T09:17:54.268Z,1024.36
2017-12-23T09:18:54.435Z,1024.33
2017-12-23T09:19:54.500Z,1024.37
2017-12-23T09:20:54.452Z,1024.33
2017-12-23T09:21:54.661Z,1024.28
2017-12-23T09:22:54.447Z,1024.3
2017-12-23T09:23:54.447Z,1024.34
2017-12-23T09:24:54.649Z,1024.33
2017-12-23T09:25:54.449Z,1024.35
2017-12-23T09:26:54.459Z,1024.37
2017-12-23T09:27:54.477Z,1024.4
2017-12-23T09:28:54.456Z,1024.41
2017-12-23T09:29:54.628Z,1024.45
2017-12-23T09:30:54.476Z,1024.43
2017-12-23T09:31:54.473Z,1024.4
2017-12-23T09:32:54.604Z,1024.41
2017-12-23T09:33:54.447Z,1024.39
2017-12-23T09:34:54.437Z,1024.42
2017-12-23T09:35:54.268Z,1024.43
2017-12-23T09:36:54.653Z,1024.4
2017-12-23T09:37:54.319Z,1024.4
2017-12-23T09:38:54.256Z,1024.45
2017-12-23T09:39:54.477Z,1024.37
2017-12-23T09:40:54.648Z,1024.44
2017-12-23T09:41:54.252Z,1024.46
2017-12-23T09:42:54.259Z,1024.45
2017-12-23T09:43:54.272Z,1024.44
2017-12-23T09:44:54.494Z,1024.47
2017-12-23T09:45:54.288Z,1024.45
2017-12-23T09:46:54.660Z,1024.42
2017-12-23T09:47:54.647Z,1024.39
2017-12-23T09:48:54.734Z,1024.37
2017-12-23T09:49:54.267Z,1024.37
2017-12-23T09:50:54.465Z,1024.35
2017-12-23T09:51:54.454Z,1024.35
2017-12-23T09:52:54.442Z,1024.38
2017-12-23T09:53:54.290Z,1024.32
2017-12-23T09:54:54.457Z,1024.38
2017-12-23T09:55:54.303Z,1024.36
2017-12-23T09:56:54.671Z,1024.32
2017-12-23T09:57:54.512Z,1024.3
2017-12-23T09:58:54.274Z,1024.33
2017-12-23T09:59:54.270Z,1024.3
2017-12-23T10:00:54.264Z,1024.29
2017-12-23T10:01:54.540Z,1024.37
2017-12-23T10:02:54.467Z,1024.35
2017-12-23T10:03:54.466Z,1024.36
2017-12-23T10:04:54.497Z,1024.34
2017-12-23T10:05:54.658Z,1024.3
2017-12-23T10:06:54.458Z,1024.31
2017-12-23T10:07:54.294Z,1024.32
2017-12-23T10:08:54.412Z,1024.27
2017-12-23T10:09:54.496Z,1024.28
2017-12-23T10:10:54.800Z,1024.29
2017-12-23T10:11:54.297Z,1024.28
2017-12-23T10:12:54.683Z,1024.27
2017-12-23T10:13:54.659Z,1024.24
2017-12-23T10:14:54.514Z,1024.2
2017-12-23T10:15:54.775Z,1024.22
2017-12-23T10:16:54.645Z,1024.26
2017-12-23T10:17:54.338Z,1024.22
2017-12-23T10:18:54.696Z,1024.27
2017-12-23T10:19:54.345Z,1024.23
2017-12-23T10:20:54.474Z,1024.25
2017-12-23T10:21:54.477Z,1024.29
2017-12-23T10:22:54.644Z,1024.27
2017-12-23T10:23:54.498Z,1024.31
2017-12-23T10:24:54.490Z,1024.33
2017-12-23T10:25:54.964Z,1024.33
2017-12-23T10:26:25.849Z,1024.37
2017-12-23T10:27:25.657Z,1024.34
2017-12-23T10:28:25.884Z,1024.35
2017-12-23T10:29:25.902Z,1024.32
2017-12-23T10:30:25.677Z,1024.3
2017-12-23T10:31:25.899Z,1024.26
2017-12-23T10:32:25.658Z,1024.25
2017-12-23T10:33:26.093Z,1024.24
2017-12-23T10:34:26.030Z,1024.25
2017-12-23T10:35:25.944Z,1024.18
2017-12-23T10:36:25.673Z,1024.22
2017-12-23T10:37:25.845Z,1024.2
2017-12-23T10:38:25.829Z,1024.21
2017-12-23T10:39:25.707Z,1024.24
2017-12-23T10:40:25.929Z,1024.19
2017-12-23T10:41:25.677Z,1024.19
2017-12-23T10:42:25.882Z,1024.2
2017-12-23T10:43:25.861Z,1024.17
2017-12-23T10:44:25.865Z,1024.2
2017-12-23T10:45:25.674Z,1024.21
2017-12-23T10:46:25.935Z,1024.21
2017-12-23T10:47:26.025Z,1024.21
2017-12-23T10:48:25.912Z,1024.23
2017-12-23T10:49:26.041Z,1024.17
2017-12-23T10:50:25.879Z,1024.22
2017-12-23T10:51:26.093Z,1024.22
2017-12-23T10:52:25.947Z,1024.22
2017-12-23T10:53:26.111Z,1024.21
2017-12-23T10:54:25.894Z,1024.21
2017-12-23T10:55:25.894Z,1024.18
2017-12-23T10:56:26.171Z,1024.17
2017-12-23T10:57:25.639Z,1024.19
2017-12-23T10:58:25.918Z,1024.15
2017-12-23T10:59:25.984Z,1024.13
2017-12-23T11:00:25.869Z,1024.14
2017-12-23T11:01:25.922Z,1024.07
2017-12-23T11:02:25.941Z,1024.1
2017-12-23T11:03:25.901Z,1024.07
2017-12-23T11:04:25.692Z,1024.12
2017-12-23T11:05:25.867Z,1024.1
2017-12-23T11:06:25.985Z,1024.12
2017-12-23T11:07:25.887Z,1024.1
2017-12-23T11:08:25.884Z,1024.09
2017-12-23T11:09:25.900Z,1024.06
2017-12-23T11:10:25.917Z,1024.02
2017-12-23T11:11:25.957Z,1024.03
2017-12-23T11:12:25.697Z,1024.08
2017-12-23T11:13:25.970Z,1024.04
2017-12-23T11:14:26.100Z,1024.05
2017-12-23T11:15:25.903Z,1024.02
2017-12-23T11:16:26.043Z,1024.04
2017-12-23T11:17:26.095Z,1024.03
2017-12-23T11:18:25.914Z,1023.98
2017-12-23T11:19:25.937Z,1023.97
2017-12-23T11:20:25.887Z,1023.96
2017-12-23T11:21:25.861Z,1023.89
2017-12-23T11:22:26.127Z,1023.95
2017-12-23T11:23:25.896Z,1023.91
2017-12-23T11:24:25.854Z,1023.93
2017-12-23T11:25:25.702Z,1023.93
2017-12-23T11:26:26.100Z,1023.89
2017-12-23T11:27:25.817Z,1023.9
2017-12-23T11:28:25.912Z,1023.88
2017-12-23T11:29:25.895Z,1023.93
2017-12-23T11:30:26.071Z,1023.9
2017-12-23T11:31:26.070Z,1023.9
2017-12-23T11:32:25.903Z,1023.87
2017-12-23T11:33:25.725Z,1023.92
2017-12-23T11:34:25.922Z,1023.84
2017-12-23T11:35:25.914Z,1023.85
2017-12-23T11:36:25.903Z,1023.86
2017-12-23T11:37:26.074Z,1023.84
2017-12-23T11:38:26.065Z,1023.8
2017-12-23T11:39:25.759Z,1023.78
2017-12-23T11:40:26.113Z,1023.78
2017-12-23T11:41:26.478Z,1023.72
2017-12-23T11:42:25.916Z,1023.73
2017-12-23T11:43:26.096Z,1023.72
2017-12-23T11:44:25.883Z,1023.72
2017-12-23T11:45:26.121Z,1023.68
2017-12-23T11:46:25.967Z,1023.68
2017-12-23T11:47:25.884Z,1023.73
2017-12-23T11:48:25.879Z,1023.66
2017-12-23T11:49:25.717Z,1023.62
2017-12-23T11:50:26.444Z,1023.59
2017-12-23T11:51:25.904Z,1023.58
2017-12-23T11:52:25.928Z,1023.58
2017-12-23T11:53:25.924Z,1023.55
2017-12-23T11:54:25.718Z,1023.53
2017-12-23T11:55:25.977Z,1023.5
2017-12-23T11:56:26.118Z,1023.43
2017-12-23T11:57:25.915Z,1023.52
2017-12-23T11:58:25.988Z,1023.52
2017-12-23T11:59:25.686Z,1023.51
2017-12-23T12:00:26.108Z,1023.52
2017-12-23T12:01:26.104Z,1023.54
2017-12-23T12:02:25.899Z,1023.53
2017-12-23T12:03:25.935Z,1023.52
2017-12-23T12:04:25.883Z,1023.56
2017-12-23T12:05:25.937Z,1023.54
2017-12-23T12:06:26.130Z,1023.52
2017-12-23T12:07:25.696Z,1023.51
2017-12-23T12:08:25.883Z,1023.55
2017-12-23T12:09:26.101Z,1023.45
2017-12-23T12:10:25.871Z,1023.55
2017-12-23T12:11:25.752Z,1023.53
2017-12-23T12:12:26.147Z,1023.53
2017-12-23T12:13:26.165Z,1023.51
2017-12-23T12:14:25.922Z,1023.55
2017-12-23T12:15:25.991Z,1023.51
2017-12-23T12:16:26.080Z,1023.55
2017-12-23T12:17:26.095Z,1023.55
2017-12-23T12:18:25.751Z,1023.59
2017-12-23T12:19:26.002Z,1023.56
2017-12-23T12:20:26.206Z,1023.55
2017-12-23T12:21:26.005Z,1023.51
2017-12-23T12:22:25.994Z,1023.56
2017-12-23T12:23:25.920Z,1023.54
2017-12-23T12:24:26.158Z,1023.54
2017-12-23T12:25:26.221Z,1023.55
2017-12-23T12:26:26.163Z,1023.55
2017-12-23T12:27:26.000Z,1023.58
2017-12-23T12:28:26.241Z,1023.56
2017-12-23T12:29:26.135Z,1023.56
2017-12-23T12:30:25.956Z,1023.54
2017-12-23T12:31:25.690Z,1023.58
2017-12-23T12:32:26.126Z,1023.52
2017-12-23T12:33:26.256Z,1023.55
2017-12-23T12:34:25.911Z,1023.5
2017-12-23T12:35:25.946Z,1023.53
2017-12-23T12:36:25.928Z,1023.54
2017-12-23T12:37:26.192Z,1023.53
2017-12-23T12:38:26.003Z,1023.52
2017-12-23T12:39:25.950Z,1023.51
2017-12-23T12:40:26.219Z,1023.54
2017-12-23T12:41:25.934Z,1023.5
2017-12-23T12:42:25.956Z,1023.51
2017-12-23T12:43:25.765Z,1023.5
2017-12-23T12:44:25.902Z,1023.49
2017-12-23T12:45:26.037Z,1023.49
2017-12-23T12:46:26.114Z,1023.47
2017-12-23T12:47:25.748Z,1023.46
2017-12-23T12:48:25.941Z,1023.43
2017-12-23T12:49:26.126Z,1023.45
2017-12-23T12:50:26.145Z,1023.43
2017-12-23T12:51:25.714Z,1023.46
2017-12-23T12:52:25.902Z,1023.42
2017-12-23T12:53:25.917Z,1023.43
2017-12-23T12:54:26.073Z,1023.41
2017-12-23T12:55:25.950Z,1023.41
2017-12-23T12:56:25.779Z,1023.42
2017-12-23T12:57:25.882Z,1023.43
2017-12-23T12:58:26.020Z,1023.39
2017-12-23T12:59:26.018Z,1023.42
2017-12-23T13:00:26.215Z,1023.44
2017-12-23T13:01:25.769Z,1023.4